Orrin, North Dakota
Current Conditions -  °F | °C
As of 2:55 PM on Friday 19 Dec 2014 (Local Time) from KRUG Reporting Station
Haze Haze  
Wind Chill: 27°   Ceiling: 400
Heat Index: 27°   Visibility: 6mi
Dew Point: 27°   Wind: 0mph
Humidity: 100%   Direction: NA
Pressure: 29.93"   Gusts: NA
Location:  48.09°N, 100.16°W
Report Text: KRUG 192055Z AUTO 00000KT 6SM BR OVC004 M03/M03 A2993 RMK AO2
Loading
Personal Weather Stations






























Interactive Weather Map New forecast layout! Learn more

10-Day Weather Forecast

Advertisements
Track Severe Weather on mobile